createdAt,value
2023-05-22T00:01:56.606Z,97401.20
2023-05-22T00:04:23.603Z,97406.40
2023-05-22T00:06:50.271Z,97404.20
2023-05-22T00:09:17.505Z,97401.00
2023-05-22T00:11:44.317Z,97401.60
2023-05-22T00:14:13.520Z,97401.60
2023-05-22T00:16:41.240Z,97407.00
2023-05-22T00:19:13.289Z,97405.00
2023-05-22T00:21:40.382Z,97408.60
2023-05-22T00:24:08.500Z,97407.20
2023-05-22T00:26:35.250Z,97409.80
2023-05-22T00:29:02.057Z,97410.00
2023-05-22T00:31:28.764Z,97411.00
2023-05-22T00:33:55.479Z,97412.80
2023-05-22T00:36:22.287Z,97408.80
2023-05-22T00:38:48.905Z,97407.20
2023-05-22T00:41:15.782Z,97401.20
2023-05-22T00:43:42.548Z,97392.80
2023-05-22T00:46:09.926Z,97391.40
2023-05-22T00:48:36.750Z,97392.00
2023-05-22T00:51:04.860Z,97392.80
2023-05-22T00:53:31.662Z,97388.20
2023-05-22T00:56:00.002Z,97388.60
2023-05-22T00:58:27.594Z,97386.20
2023-05-22T01:00:56.089Z,97379.20
2023-05-22T01:03:26.719Z,97374.60
2023-05-22T01:05:55.767Z,97377.80
2023-05-22T01:08:23.517Z,97371.20
2023-05-22T01:11:04.348Z,97365.80
2023-05-22T01:14:04.783Z,97369.60
2023-05-22T01:16:46.808Z,97374.80
2023-05-22T01:19:43.766Z,97376.60
2023-05-22T01:22:22.422Z,97375.00
2023-05-22T01:25:11.948Z,97374.20
2023-05-22T01:28:02.514Z,97378.80
2023-05-22T01:30:57.759Z,97377.60
2023-05-22T01:33:26.134Z,97374.80
2023-05-22T01:35:59.710Z,97374.80
2023-05-22T01:38:28.894Z,97373.80
2023-05-22T01:40:57.079Z,97372.80
2023-05-22T01:43:23.832Z,97374.60
2023-05-22T01:45:51.549Z,97371.80
2023-05-22T01:48:18.323Z,97375.20
2023-05-22T01:50:50.063Z,97379.60
2023-05-22T01:53:20.078Z,97385.00
2023-05-22T01:56:01.668Z,97381.40
2023-05-22T01:58:49.752Z,97382.80
2023-05-22T02:01:19.971Z,97377.40
2023-05-22T02:03:56.248Z,97378.20
2023-05-22T02:06:26.811Z,97377.20
2023-05-22T02:08:55.562Z,97370.80
2023-05-22T02:11:27.099Z,97364.00
2023-05-22T02:13:54.296Z,97366.80
2023-05-22T02:16:22.316Z,97366.20
2023-05-22T02:18:49.199Z,97362.00
2023-05-22T02:21:15.888Z,97359.20
2023-05-22T02:23:42.750Z,97354.00
2023-05-22T02:26:09.391Z,97344.20
2023-05-22T02:28:36.230Z,97342.80
2023-05-22T02:31:03.842Z,97346.20
2023-05-22T02:33:30.948Z,97349.00
2023-05-22T02:35:57.662Z,97347.40
2023-05-22T02:38:24.376Z,97344.80
2023-05-22T02:40:51.906Z,97341.20
2023-05-22T02:43:18.567Z,97342.60
2023-05-22T02:45:45.236Z,97338.40
2023-05-22T02:48:13.267Z,97346.40
2023-05-22T02:50:40.376Z,97340.20
2023-05-22T02:53:07.854Z,97342.60
2023-05-22T02:55:34.775Z,97342.20
2023-05-22T02:58:03.483Z,97346.00
2023-05-22T03:00:30.241Z,97352.40
2023-05-22T03:02:57.047Z,97349.40
2023-05-22T03:05:23.776Z,97356.40
2023-05-22T03:07:52.922Z,97353.80
2023-05-22T03:10:19.689Z,97349.20
2023-05-22T03:12:46.299Z,97352.80
2023-05-22T03:15:13.194Z,97353.40
2023-05-22T03:17:40.480Z,97353.00
2023-05-22T03:20:08.876Z,97348.00
2023-05-22T03:22:36.096Z,97350.60
2023-05-22T03:25:03.968Z,97353.20
2023-05-22T03:27:30.660Z,97357.00
2023-05-22T03:29:57.318Z,97355.80
2023-05-22T03:32:24.272Z,97356.80
2023-05-22T03:34:50.979Z,97353.00
2023-05-22T03:37:17.658Z,97356.80
2023-05-22T03:39:44.557Z,97356.00
2023-05-22T03:42:24.529Z,97354.60
2023-05-22T03:44:51.362Z,97355.60
2023-05-22T03:47:18.247Z,97352.60
2023-05-22T03:49:46.098Z,97351.80
2023-05-22T03:52:12.847Z,97348.40
2023-05-22T03:54:39.555Z,97348.20
2023-05-22T03:57:06.944Z,97342.00
2023-05-22T03:59:33.676Z,97342.20
2023-05-22T04:02:01.330Z,97341.00
2023-05-22T04:04:28.482Z,97338.60
2023-05-22T04:06:58.310Z,97340.20
2023-05-22T04:09:32.222Z,97336.40
2023-05-22T04:11:58.902Z,97340.40
2023-05-22T04:14:26.257Z,97332.20
2023-05-22T04:16:53.440Z,97331.80
2023-05-22T04:19:20.716Z,97335.00
2023-05-22T04:21:49.231Z,97331.80
2023-05-22T04:24:18.248Z,97319.20
2023-05-22T04:26:45.016Z,97305.80
2023-05-22T04:29:14.709Z,97310.00
2023-05-22T04:31:42.137Z,97289.00
2023-05-22T04:34:14.783Z,97298.60
2023-05-22T04:36:45.302Z,97313.20
2023-05-22T04:39:14.015Z,97293.20
2023-05-22T04:41:41.171Z,97288.20
2023-05-22T04:44:08.305Z,97287.40
2023-05-22T04:46:36.094Z,97281.20
2023-05-22T04:49:06.287Z,97289.80
2023-05-22T04:51:34.850Z,97286.20
2023-05-22T04:54:01.571Z,97289.20
2023-05-22T04:56:36.315Z,97291.00
2023-05-22T04:59:05.461Z,97299.00
2023-05-22T05:01:35.077Z,97299.40
2023-05-22T05:04:03.838Z,97295.60
2023-05-22T05:06:30.704Z,97295.80
2023-05-22T05:08:58.107Z,97305.00
2023-05-22T05:11:24.930Z,97326.60
2023-05-22T05:13:51.807Z,97336.40
2023-05-22T05:16:19.053Z,97336.20
2023-05-22T05:18:46.121Z,97333.20
2023-05-22T05:21:13.034Z,97343.00
2023-05-22T05:23:39.808Z,97344.80
2023-05-22T05:26:07.238Z,97347.20
2023-05-22T05:28:34.052Z,97353.60
2023-05-22T05:31:01.730Z,97349.80
2023-05-22T05:33:52.436Z,97350.00
2023-05-22T05:36:35.631Z,97353.20
2023-05-22T05:39:02.456Z,97350.60
2023-05-22T05:41:32.607Z,97348.40
2023-05-22T05:44:05.812Z,97349.60
2023-05-22T05:46:32.993Z,97351.80
2023-05-22T05:48:59.808Z,97351.20
2023-05-22T05:51:27.623Z,97344.80
2023-05-22T05:53:54.361Z,97348.00
2023-05-22T05:56:21.636Z,97349.20
2023-05-22T05:58:48.517Z,97344.00
2023-05-22T06:01:47.132Z,97345.60
2023-05-22T06:04:19.041Z,97349.80
2023-05-22T06:06:47.824Z,97346.20
2023-05-22T06:09:15.007Z,97349.80
2023-05-22T06:12:01.479Z,97347.80
2023-05-22T06:14:28.627Z,97346.20
2023-05-22T06:16:56.199Z,97346.40
2023-05-22T06:19:23.067Z,97345.80
2023-05-22T06:21:52.024Z,97346.00
2023-05-22T06:24:20.192Z,97344.60
2023-05-22T06:26:46.912Z,97343.00
2023-05-22T06:29:14.759Z,97339.40
2023-05-22T06:31:41.514Z,97337.00
2023-05-22T06:34:08.612Z,97338.80
2023-05-22T06:36:35.637Z,97339.40
2023-05-22T06:39:03.500Z,97341.20
2023-05-22T06:41:53.421Z,97342.00
2023-05-22T06:44:20.451Z,97339.60
2023-05-22T06:46:50.212Z,97338.00
2023-05-22T06:49:21.026Z,97342.00
2023-05-22T06:51:51.731Z,97341.60
2023-05-22T06:54:19.693Z,97341.40
2023-05-22T06:56:47.722Z,97342.00
2023-05-22T06:59:16.453Z,97338.40
2023-05-22T07:01:51.962Z,97339.80
2023-05-22T07:04:25.132Z,97340.60
2023-05-22T07:06:57.300Z,97338.80
2023-05-22T07:09:24.163Z,97338.00
2023-05-22T07:11:51.028Z,97343.00
2023-05-22T07:14:18.189Z,97343.60
2023-05-22T07:16:45.480Z,97343.20
2023-05-22T07:19:12.686Z,97337.80
2023-05-22T07:21:39.911Z,97340.60
2023-05-22T07:24:09.543Z,97331.40
2023-05-22T07:26:46.360Z,97333.20
2023-05-22T07:29:14.144Z,97333.60
2023-05-22T07:31:42.424Z,97326.40
2023-05-22T07:34:10.656Z,97327.00
2023-05-22T07:36:38.085Z,97326.60
2023-05-22T07:39:05.472Z,97331.00
2023-05-22T07:41:35.893Z,97331.60
2023-05-22T07:44:02.742Z,97330.80
2023-05-22T07:46:32.512Z,97330.80
2023-05-22T07:49:07.082Z,97331.00
2023-05-22T07:51:34.903Z,97329.20
2023-05-22T07:54:01.714Z,97328.40
2023-05-22T07:56:28.620Z,97326.40
2023-05-22T07:58:55.540Z,97327.40
2023-05-22T08:01:23.523Z,97328.80
2023-05-22T08:03:50.348Z,97325.80
2023-05-22T08:06:17.948Z,97323.00
2023-05-22T08:08:44.627Z,97324.00
2023-05-22T08:11:11.492Z,97321.20
2023-05-22T08:13:38.836Z,97322.40
2023-05-22T08:16:06.815Z,97322.80
2023-05-22T08:18:34.016Z,97323.00
2023-05-22T08:21:01.305Z,97320.80
2023-05-22T08:23:28.290Z,97320.40
2023-05-22T08:25:54.967Z,97318.00
2023-05-22T08:28:21.931Z,97316.80
2023-05-22T08:30:48.595Z,97317.20
2023-05-22T08:33:15.318Z,97316.00
2023-05-22T08:35:42.135Z,97310.40
2023-05-22T08:38:08.779Z,97310.80
2023-05-22T08:40:38.746Z,97307.00
2023-05-22T08:43:06.974Z,97306.80
2023-05-22T08:45:34.622Z,97304.60
2023-05-22T08:48:08.531Z,97304.20
2023-05-22T08:50:42.276Z,97305.20
2023-05-22T08:53:15.745Z,97302.40
2023-05-22T08:55:42.913Z,97299.00
2023-05-22T08:58:11.503Z,97298.80
2023-05-22T09:00:38.796Z,97294.00
2023-05-22T09:03:07.062Z,97290.60
2023-05-22T09:05:34.193Z,97285.00
2023-05-22T09:08:16.031Z,97287.40
2023-05-22T09:10:46.495Z,97286.40
2023-05-22T09:13:31.467Z,97279.80
2023-05-22T09:16:00.901Z,97280.80
2023-05-22T09:18:29.645Z,97279.60
2023-05-22T09:21:00.630Z,97278.60
2023-05-22T09:23:30.827Z,97275.20
2023-05-22T09:26:00.133Z,97276.80
2023-05-22T09:28:29.036Z,97274.40
2023-05-22T09:30:56.256Z,97276.80
2023-05-22T09:33:23.549Z,97278.20
2023-05-22T09:35:54.713Z,97271.80
2023-05-22T09:38:30.804Z,97276.20
2023-05-22T09:40:57.813Z,97270.20
2023-05-22T09:43:25.777Z,97271.60
2023-05-22T09:46:02.358Z,97268.20
2023-05-22T09:48:29.617Z,97272.00
2023-05-22T09:51:00.213Z,97277.40
2023-05-22T09:53:30.156Z,97271.20
2023-05-22T09:56:00.224Z,97267.40
2023-05-22T09:58:33.461Z,97265.80
2023-05-22T10:01:01.698Z,97268.20
2023-05-22T10:03:31.488Z,97259.40
2023-05-22T10:06:00.698Z,97260.20
2023-05-22T10:08:29.010Z,97258.00
2023-05-22T10:10:57.864Z,97253.00
2023-05-22T10:13:26.496Z,97251.80
2023-05-22T10:15:54.812Z,97249.40
2023-05-22T10:18:22.064Z,97251.80
2023-05-22T10:20:50.166Z,97248.60
2023-05-22T10:23:18.869Z,97245.00
2023-05-22T10:25:46.191Z,97237.60
2023-05-22T10:28:23.541Z,97241.20
2023-05-22T10:31:11.705Z,97235.40
2023-05-22T10:34:11.243Z,97232.40
2023-05-22T10:37:16.573Z,97227.60
2023-05-22T10:40:02.142Z,97234.20
2023-05-22T10:42:32.837Z,97231.20
2023-05-22T10:45:06.762Z,97231.60
2023-05-22T10:47:34.504Z,97226.00
2023-05-22T10:50:12.002Z,97227.40
2023-05-22T10:52:40.228Z,97230.80
2023-05-22T10:55:11.273Z,97223.80
2023-05-22T10:57:39.995Z,97223.00
2023-05-22T11:00:13.168Z,97218.00
2023-05-22T11:02:44.792Z,97215.40
2023-05-22T11:05:18.384Z,97207.20
2023-05-22T11:07:45.130Z,97208.00
2023-05-22T11:10:11.900Z,97200.80
2023-05-22T11:12:38.669Z,97201.80
2023-05-22T11:15:08.566Z,97197.60
2023-05-22T11:18:03.174Z,97193.80
2023-05-22T11:20:31.118Z,97187.20
2023-05-22T11:23:05.622Z,97190.20
2023-05-22T11:25:35.039Z,97191.00
2023-05-22T11:28:07.073Z,97185.80
2023-05-22T11:30:34.794Z,97182.20
2023-05-22T11:33:02.592Z,97181.40
2023-05-22T11:35:29.898Z,97176.60
2023-05-22T11:37:57.021Z,97178.80
2023-05-22T11:40:27.208Z,97177.60
2023-05-22T11:42:54.384Z,97175.40
2023-05-22T11:45:21.853Z,97179.80
2023-05-22T11:47:49.826Z,97170.80
2023-05-22T11:50:29.247Z,97171.00
2023-05-22T11:53:02.835Z,97168.80
2023-05-22T11:55:29.597Z,97172.80
2023-05-22T11:57:56.859Z,97175.80
2023-05-22T12:00:23.729Z,97174.20
2023-05-22T12:02:50.735Z,97172.40
2023-05-22T12:05:21.659Z,97177.40
2023-05-22T12:07:48.601Z,97172.60
2023-05-22T12:10:15.714Z,97172.80
2023-05-22T12:12:44.035Z,97167.20
2023-05-22T12:15:11.381Z,97166.80
2023-05-22T12:17:38.488Z,97167.80
2023-05-22T12:20:07.142Z,97167.60
2023-05-22T12:22:33.973Z,97169.00
2023-05-22T12:25:00.796Z,97170.00
2023-05-22T12:27:33.205Z,97166.00
2023-05-22T12:30:10.626Z,97162.40
2023-05-22T12:32:37.337Z,97165.00
2023-05-22T12:35:04.681Z,97161.40
2023-05-22T12:37:33.767Z,97157.20
2023-05-22T12:40:04.365Z,97164.20
2023-05-22T12:42:31.200Z,97156.20
2023-05-22T12:45:01.209Z,97159.40
2023-05-22T12:47:28.221Z,97157.00
2023-05-22T12:49:55.027Z,97151.00
2023-05-22T12:52:21.790Z,97162.00
2023-05-22T12:54:50.226Z,97156.40
2023-05-22T12:57:17.074Z,97154.80
2023-05-22T12:59:44.001Z,97155.40
2023-05-22T13:02:11.029Z,97156.20
2023-05-22T13:04:37.777Z,97154.00
2023-05-22T13:07:04.913Z,97156.60
2023-05-22T13:09:31.709Z,97157.60
2023-05-22T13:11:58.372Z,97159.40
2023-05-22T13:14:25.389Z,97158.20
2023-05-22T13:16:52.054Z,97156.40
2023-05-22T13:19:18.802Z,97161.20
2023-05-22T13:21:45.905Z,97166.20
2023-05-22T13:24:12.588Z,97165.00
2023-05-22T13:26:39.297Z,97160.80
2023-05-22T13:29:06.648Z,97163.20
2023-05-22T13:31:37.432Z,97155.80
2023-05-22T13:34:05.433Z,97152.00
2023-05-22T13:36:32.833Z,97153.60
2023-05-22T13:38:59.629Z,97150.40
2023-05-22T13:41:27.123Z,97148.20
2023-05-22T13:43:54.701Z,97148.60
2023-05-22T13:46:22.449Z,97144.20
2023-05-22T13:48:49.430Z,97141.60
2023-05-22T13:51:16.642Z,97139.80
2023-05-22T13:53:43.349Z,97144.80
2023-05-22T13:56:10.354Z,97138.80
2023-05-22T13:58:37.089Z,97141.40
2023-05-22T14:01:03.859Z,97142.20
2023-05-22T14:03:30.631Z,97137.40
2023-05-22T14:05:57.406Z,97135.00
2023-05-22T14:08:24.967Z,97131.20
2023-05-22T14:10:51.745Z,97130.40
2023-05-22T14:13:18.795Z,97133.00
2023-05-22T14:15:47.001Z,97130.00
2023-05-22T14:18:16.264Z,97125.80
2023-05-22T14:20:44.696Z,97121.20
2023-05-22T14:23:13.252Z,97124.00
2023-05-22T14:25:42.943Z,97121.80
2023-05-22T14:28:11.562Z,97121.80
2023-05-22T14:30:38.945Z,97117.60
2023-05-22T14:33:06.053Z,97116.00
2023-05-22T14:35:34.063Z,97116.60
2023-05-22T14:38:01.555Z,97114.00
2023-05-22T14:40:28.420Z,97111.20
2023-05-22T14:42:55.110Z,97112.20
2023-05-22T14:45:21.986Z,97110.20
2023-05-22T14:47:48.717Z,97108.40
2023-05-22T14:50:19.808Z,97108.60
2023-05-22T14:52:48.779Z,97106.60
2023-05-22T14:55:16.870Z,97109.80
2023-05-22T14:57:44.010Z,97105.80
2023-05-22T15:00:12.592Z,97101.80
2023-05-22T15:02:40.402Z,97105.40
2023-05-22T15:05:08.142Z,97102.60
2023-05-22T15:07:44.019Z,97102.40
2023-05-22T15:10:12.891Z,97100.40
2023-05-22T15:12:39.873Z,97099.80
2023-05-22T15:15:07.460Z,97092.00
2023-05-22T15:17:34.221Z,97092.20
2023-05-22T15:20:01.030Z,97087.80
2023-05-22T15:22:27.658Z,97086.80
2023-05-22T15:25:23.877Z,97084.60
2023-05-22T15:27:50.628Z,97081.80
2023-05-22T15:30:19.110Z,97082.20
2023-05-22T15:32:46.945Z,97081.20
2023-05-22T15:35:14.109Z,97077.80
2023-05-22T15:37:41.021Z,97080.60
2023-05-22T15:40:11.221Z,97075.60
2023-05-22T15:42:38.510Z,97077.80
2023-05-22T15:45:06.124Z,97078.60
2023-05-22T15:47:33.002Z,97073.40
2023-05-22T15:50:00.207Z,97073.20
2023-05-22T15:52:26.937Z,97070.80
2023-05-22T15:54:54.938Z,97067.40
2023-05-22T15:57:23.013Z,97070.80
2023-05-22T15:59:50.914Z,97069.00
2023-05-22T16:02:18.915Z,97068.20
2023-05-22T16:04:45.879Z,97069.80
2023-05-22T16:07:12.578Z,97064.80
2023-05-22T16:09:39.269Z,97069.80
2023-05-22T16:12:06.431Z,97066.40
2023-05-22T16:14:33.086Z,97070.80
2023-05-22T16:16:59.808Z,97067.80
2023-05-22T16:19:28.653Z,97065.60
2023-05-22T16:21:55.665Z,97065.60
2023-05-22T16:24:22.298Z,97066.60
2023-05-22T16:26:48.978Z,97070.20
2023-05-22T16:29:20.578Z,97065.60
2023-05-22T16:31:47.879Z,97066.40
2023-05-22T16:34:15.080Z,97065.00
2023-05-22T16:36:41.736Z,97068.60
2023-05-22T16:39:08.407Z,97070.60
2023-05-22T16:41:37.191Z,97070.80
2023-05-22T16:44:03.992Z,97076.40
2023-05-22T16:46:30.832Z,97082.60
2023-05-22T16:48:57.460Z,97084.60
2023-05-22T16:51:24.167Z,97086.60
2023-05-22T16:53:51.121Z,97087.00
2023-05-22T16:56:20.324Z,97088.00
2023-05-22T16:58:47.712Z,97089.20
2023-05-22T17:01:14.686Z,97096.80
2023-05-22T17:03:41.576Z,97097.20
2023-05-22T17:06:09.092Z,97100.40
2023-05-22T17:08:35.969Z,97102.40
2023-05-22T17:11:02.604Z,97102.60
2023-05-22T17:13:29.258Z,97101.00
2023-05-22T17:15:56.121Z,97100.00
2023-05-22T17:18:22.885Z,97104.80
2023-05-22T17:20:53.945Z,97103.20
2023-05-22T17:23:20.900Z,97103.40
2023-05-22T17:25:47.955Z,97103.60
2023-05-22T17:28:15.120Z,97109.20
2023-05-22T17:30:44.283Z,97108.00
2023-05-22T17:33:12.367Z,97105.80
2023-05-22T17:35:39.138Z,97110.20
2023-05-22T17:38:08.421Z,97114.80
2023-05-22T17:40:44.170Z,97108.20
2023-05-22T17:43:11.879Z,97106.60
2023-05-22T17:45:38.607Z,97104.80
2023-05-22T17:48:07.457Z,97106.80
2023-05-22T17:50:34.157Z,97108.60
2023-05-22T17:53:00.964Z,97107.00
2023-05-22T17:55:27.654Z,97104.20
2023-05-22T17:57:54.615Z,97104.20
2023-05-22T18:00:21.387Z,97099.80
2023-05-22T18:02:48.072Z,97100.80
2023-05-22T18:05:15.065Z,97102.80
2023-05-22T18:07:41.826Z,97097.20
2023-05-22T18:10:09.240Z,97098.60
2023-05-22T18:12:38.210Z,97097.00
2023-05-22T18:15:08.510Z,97095.00
2023-05-22T18:17:35.472Z,97092.20
2023-05-22T18:20:02.159Z,97090.60
2023-05-22T18:22:28.845Z,97090.20
2023-05-22T18:24:55.471Z,97088.80
2023-05-22T18:27:22.074Z,97091.60
2023-05-22T18:29:50.463Z,97093.00
2023-05-22T18:32:17.447Z,97095.60
2023-05-22T18:34:44.117Z,97097.00
2023-05-22T18:37:10.990Z,97093.40
2023-05-22T18:39:37.706Z,97094.20
2023-05-22T18:42:05.149Z,97094.00
2023-05-22T18:44:31.780Z,97088.00
2023-05-22T18:46:58.418Z,97088.20
2023-05-22T18:49:25.097Z,97088.60
2023-05-22T18:51:51.788Z,97087.00
2023-05-22T18:54:18.442Z,97091.40
2023-05-22T18:56:45.081Z,97090.80
2023-05-22T18:59:11.777Z,97093.80
2023-05-22T19:01:38.638Z,97095.60
2023-05-22T19:04:09.096Z,97095.20
2023-05-22T19:06:36.317Z,97092.80
2023-05-22T19:09:04.789Z,97094.40
2023-05-22T19:11:31.535Z,97097.00
2023-05-22T19:13:59.675Z,97098.80
2023-05-22T19:16:26.405Z,97096.80
2023-05-22T19:18:53.486Z,97099.20
2023-05-22T19:21:20.576Z,97098.60
2023-05-22T19:23:48.337Z,97097.60
2023-05-22T19:26:15.070Z,97099.20
2023-05-22T19:28:41.830Z,97105.40
2023-05-22T19:31:08.523Z,97106.40
2023-05-22T19:33:35.661Z,97108.40
2023-05-22T19:36:02.554Z,97114.20
2023-05-22T19:38:31.148Z,97116.00
2023-05-22T19:40:57.951Z,97118.40
2023-05-22T19:43:25.055Z,97119.80
2023-05-22T19:45:51.864Z,97123.80
2023-05-22T19:48:18.584Z,97126.60
2023-05-22T19:50:45.414Z,97115.20
2023-05-22T19:53:12.192Z,97117.60
2023-05-22T19:55:38.912Z,97118.20
2023-05-22T19:58:05.545Z,97122.40
2023-05-22T20:00:33.460Z,97123.40
2023-05-22T20:03:00.202Z,97125.80
2023-05-22T20:05:27.336Z,97132.60
2023-05-22T20:07:54.270Z,97131.60
2023-05-22T20:10:20.958Z,97132.20
2023-05-22T20:12:47.668Z,97134.60
2023-05-22T20:15:15.437Z,97136.80
2023-05-22T20:17:42.629Z,97138.00
2023-05-22T20:20:10.439Z,97135.40
2023-05-22T20:22:37.027Z,97132.00
2023-05-22T20:25:05.298Z,97133.20
2023-05-22T20:27:32.165Z,97132.20
2023-05-22T20:30:00.234Z,97138.00
2023-05-22T20:32:27.383Z,97136.40
2023-05-22T20:34:55.409Z,97134.00
2023-05-22T20:37:23.051Z,97135.20
2023-05-22T20:39:50.292Z,97137.00
2023-05-22T20:42:17.931Z,97138.60
2023-05-22T20:44:44.641Z,97141.80
2023-05-22T20:47:11.348Z,97147.40
2023-05-22T20:49:38.944Z,97148.60
2023-05-22T20:52:05.822Z,97144.40
2023-05-22T20:54:34.621Z,97149.40
2023-05-22T20:57:02.188Z,97145.80
2023-05-22T20:59:29.148Z,97145.20
2023-05-22T21:01:57.130Z,97149.60
2023-05-22T21:04:24.372Z,97150.20
2023-05-22T21:06:51.410Z,97148.80
2023-05-22T21:09:18.184Z,97151.40
2023-05-22T21:11:45.014Z,97153.80
2023-05-22T21:14:11.768Z,97149.20
2023-05-22T21:16:40.170Z,97150.00
2023-05-22T21:19:07.443Z,97154.20
2023-05-22T21:21:36.273Z,97155.20
2023-05-22T21:24:03.397Z,97151.80
2023-05-22T21:26:30.343Z,97157.20
2023-05-22T21:28:57.209Z,97157.20
2023-05-22T21:31:24.015Z,97159.00
2023-05-22T21:33:50.782Z,97161.00
2023-05-22T21:36:17.484Z,97161.00
2023-05-22T21:38:44.937Z,97161.00
2023-05-22T21:41:12.643Z,97162.60
2023-05-22T21:43:39.552Z,97162.20
2023-05-22T21:46:06.252Z,97162.20
2023-05-22T21:48:33.049Z,97166.20
2023-05-22T21:50:59.768Z,97163.00
2023-05-22T21:53:26.432Z,97165.20
2023-05-22T21:55:53.112Z,97160.00
2023-05-22T21:58:19.762Z,97158.80
2023-05-22T22:00:46.516Z,97161.80
2023-05-22T22:03:13.446Z,97161.20
2023-05-22T22:05:40.291Z,97159.00
2023-05-22T22:08:06.969Z,97156.00
2023-05-22T22:10:33.926Z,97153.80
2023-05-22T22:13:01.654Z,97152.40
2023-05-22T22:15:28.467Z,97149.80
2023-05-22T22:17:59.618Z,97146.40
2023-05-22T22:20:42.507Z,97153.40
2023-05-22T22:23:10.756Z,97151.20
2023-05-22T22:25:39.272Z,97153.60
2023-05-22T22:28:07.400Z,97152.80
2023-05-22T22:30:35.323Z,97144.20
2023-05-22T22:33:02.387Z,97147.00
2023-05-22T22:35:29.091Z,97144.80
2023-05-22T22:37:55.772Z,97142.40
2023-05-22T22:40:23.388Z,97136.80
2023-05-22T22:42:51.732Z,97136.40
2023-05-22T22:45:18.383Z,97134.20
2023-05-22T22:47:45.997Z,97134.60
2023-05-22T22:50:12.815Z,97142.00
2023-05-22T22:52:45.634Z,97140.20
2023-05-22T22:55:13.548Z,97143.20
2023-05-22T22:57:43.312Z,97139.60
2023-05-22T23:00:13.346Z,97137.20
2023-05-22T23:02:40.613Z,97135.80
2023-05-22T23:05:08.606Z,97130.20
2023-05-22T23:07:35.831Z,97129.80
2023-05-22T23:10:02.951Z,97131.40
2023-05-22T23:12:29.614Z,97133.80
2023-05-22T23:14:56.522Z,97129.80
2023-05-22T23:17:23.149Z,97132.20
2023-05-22T23:19:49.750Z,97133.20
2023-05-22T23:22:16.414Z,97137.80
2023-05-22T23:24:43.030Z,97137.80
2023-05-22T23:27:09.711Z,97140.40
2023-05-22T23:29:36.455Z,97142.00
2023-05-22T23:32:03.197Z,97137.00
2023-05-22T23:34:29.967Z,97137.80
2023-05-22T23:36:56.620Z,97134.80
2023-05-22T23:39:23.254Z,97137.20
2023-05-22T23:41:49.871Z,97130.40
2023-05-22T23:44:16.556Z,97135.20
2023-05-22T23:46:44.099Z,97130.00
2023-05-22T23:49:10.909Z,97127.40
2023-05-22T23:51:37.590Z,97127.80
2023-05-22T23:54:04.445Z,97128.80
2023-05-22T23:56:31.217Z,97130.40
2023-05-22T23:58:57.828Z,97127.80
